ナタール の空港の天気 - METARとTAF

アウグスト・セヴェーロ国際空港 ( SBNT / NAT ) - ブラジル リオグランデ・ド・ノルテ州ナタール
飛行場実況気象(Metar)
観測時間-
風向・風速- -
視程-
天気現象-
-
気温-
湿度-
気圧-
METAR-
過去の天気等 Google飛行場航空写真 Wunderground天気予報

過去48時間のMETAR

飛行場予報(TAF)
発表時間: 10/24 00:00 BRT (10/24 03:00 UTC)
予報対象時間: 24日3時 BRT ~ 24日15時 BRT
風向・風速南東 4m/s
視程8000m
全天の4割程度の雲 雲底高度 370m
全天の8割程度の雲 雲底高度 910m
24日3時 BRT から 確率 40% で
視程5000m
天気現象
全天の8割程度の雲 雲底高度 210m
全天の8割程度の雲 雲底高度 460m
24日7時 BRT ~ 24日9時 BRT に徐々に
風向・風速東南東 8m/s
全天の8割程度の雲 雲底高度 520m
24日10時 BRT ~ 24日12時 BRT に徐々に
風向・風速南東 9m/s
全天の8割程度の雲 雲底高度 760m
24日13時 BRT ~ 24日15時 BRT に徐々に
風向・風速東南東 7m/s
全天の8割程度の雲 雲底高度 520m
少しの塔状積雲 雲底高度 820m
TAF SBNT 240300Z 2406/2418 14008KT 8000 SCT012 BKN030 TN23/2408Z TX29/2417Z
PROB40 2406/2409 5000 RA BKN007 BKN015
BECMG 2410/2412 12015KT BKN017
BECMG 2413/2415 13018KT BKN025
BECMG 2416/2418 12013KT BKN017 FEW027TCU RMK PHN